Time;durP1;ratioP1;P1;durP2;ratioP2;P2;SDS_P1;SDS_P2;PMS_P1;PMS_P2;Temp;Humidity;BMP_temperature;BMP_pressure;BME280_temperature;BME280_humidity;BME280_pressure;Samples;Min_cycle;Max_cycle;Signal;HPM_P1;HPM_P2
2021/03/14 00:01:22;;;;;;;;;;;24.10;44.70;;;;;;1595745;72;741;-68
2021/03/14 00:03:25;;;;;;;;;;;24.10;44.50;;;;;;1592671;72;1123;-63
2021/03/14 00:05:28;;;;;;;;;;;24.10;44.40;;;;;;1608695;72;774;-67
2021/03/14 00:07:30;;;;;;;;;;;24.00;44.40;;;;;;1598483;72;858;-68
2021/03/14 00:09:31;;;;;;;;;;;24.00;44.40;;;;;;1595093;72;690;-67
2021/03/14 00:11:33;;;;;;;;;;;24.10;44.60;;;;;;1602246;72;1932;-68
2021/03/14 00:13:36;;;;;;;;;;;24.10;44.70;;;;;;1598078;72;1136;-70
2021/03/14 00:15:38;;;;;;;;;;;24.10;44.40;;;;;;1594148;72;767;-68
2021/03/14 00:17:40;;;;;;;;;;;24.10;44.40;;;;;;1600702;72;709;-69
2021/03/14 00:19:42;;;;;;;;;;;24.10;44.40;;;;;;1593521;72;771;-69
2021/03/14 00:21:44;;;;;;;;;;;24.20;44.30;;;;;;1602944;72;1043;-70
2021/03/14 00:23:46;;;;;;;;;;;24.10;44.30;;;;;;1596332;72;1143;-68
2021/03/14 00:25:48;;;;;;;;;;;24.10;44.30;;;;;;1601349;72;826;-68
2021/03/14 00:27:49;;;;;;;;;;;24.10;44.40;;;;;;1599841;72;826;-69
2021/03/14 00:29:51;;;;;;;;;;;24.10;44.60;;;;;;1592353;72;744;-69
2021/03/14 00:31:53;;;;;;;;;;;24.20;44.40;;;;;;1601872;72;1898;-71
2021/03/14 00:33:55;;;;;;;;;;;24.10;44.50;;;;;;1598187;72;1154;-68
2021/03/14 00:35:57;;;;;;;;;;;24.10;44.70;;;;;;1599886;72;703;-70
2021/03/14 00:37:59;;;;;;;;;;;24.10;44.80;;;;;;1596713;72;713;-71
2021/03/14 00:40:01;;;;;;;;;;;24.10;44.60;;;;;;1596403;72;680;-72
2021/03/14 00:42:03;;;;;;;;;;;24.10;44.60;;;;;;1592740;72;744;-70
2021/03/14 00:44:05;;;;;;;;;;;24.00;44.40;;;;;;1596957;72;1136;-70
2021/03/14 00:46:07;;;;;;;;;;;24.10;44.60;;;;;;1600184;72;818;-70
2021/03/14 00:48:09;;;;;;;;;;;24.10;44.40;;;;;;1600335;72;787;-68
2021/03/14 00:50:11;;;;;;;;;;;24.00;44.40;;;;;;1595092;72;1079;-70
2021/03/14 00:52:13;;;;;;;;;;;24.10;44.30;;;;;;1596894;72;1933;-69
2021/03/14 00:54:15;;;;;;;;;;;24.10;44.30;;;;;;1596672;72;1322;-68
2021/03/14 00:56:16;;;;;;;;;;;24.00;44.30;;;;;;1589649;72;716;-67
2021/03/14 00:58:19;;;;;;;;;;;24.00;44.40;;;;;;1594469;72;723;-69
2021/03/14 01:00:21;;;;;;;;;;;24.00;44.30;;;;;;1600567;72;691;-68
2021/03/14 01:02:23;;;;;;;;;;;24.00;44.30;;;;;;1593281;72;677;-68
2021/03/14 01:04:25;;;;;;;;;;;24.00;44.40;;;;;;1596545;72;1179;-69
2021/03/14 01:06:26;;;;;;;;;;;24.00;44.20;;;;;;1595971;72;693;-71
2021/03/14 01:08:28;;;;;;;;;;;24.00;44.10;;;;;;1599918;72;739;-68
2021/03/14 01:10:30;;;;;;;;;;;24.00;44.30;;;;;;1596825;72;711;-68
2021/03/14 01:12:32;;;;;;;;;;;24.00;44.30;;;;;;1599971;72;1942;-68
2021/03/14 01:14:34;;;;;;;;;;;24.10;44.40;;;;;;1599322;72;677;-67
2021/03/14 01:16:36;;;;;;;;;;;24.00;44.20;;;;;;1600822;72;799;-68
2021/03/14 01:18:38;;;;;;;;;;;24.00;44.20;;;;;;1598871;72;677;-69
2021/03/14 01:20:40;;;;;;;;;;;24.00;44.30;;;;;;1593232;72;808;-70
2021/03/14 01:22:42;;;;;;;;;;;24.00;44.00;;;;;;1598310;72;1115;-72
2021/03/14 01:24:43;;;;;;;;;;;24.00;44.30;;;;;;1596192;72;823;-70
2021/03/14 01:26:45;;;;;;;;;;;24.00;44.20;;;;;;1599857;72;992;-70
2021/03/14 01:28:48;;;;;;;;;;;24.00;44.40;;;;;;1598642;72;750;-70
2021/03/14 01:30:50;;;;;;;;;;;24.00;44.40;;;;;;1599819;72;745;-70
2021/03/14 01:32:51;;;;;;;;;;;24.00;44.30;;;;;;1599227;72;1917;-69
2021/03/14 01:34:53;;;;;;;;;;;24.10;44.30;;;;;;1602341;72;777;-69
2021/03/14 01:36:55;;;;;;;;;;;24.00;44.10;;;;;;1599468;72;701;-70
2021/03/14 01:38:57;;;;;;;;;;;23.90;44.20;;;;;;1597016;72;705;-70
2021/03/14 01:40:59;;;;;;;;;;;23.90;44.20;;;;;;1602569;72;781;-71
2021/03/14 01:43:01;;;;;;;;;;;23.90;44.60;;;;;;1593778;72;1253;-71
2021/03/14 01:45:06;;;;;;;;;;;23.90;44.60;;;;;;1600426;72;769;-72
2021/03/14 01:47:10;;;;;;;;;;;24.00;44.50;;;;;;1604267;72;727;-72
2021/03/14 01:49:12;;;;;;;;;;;24.00;44.40;;;;;;1602125;72;691;-70
2021/03/14 01:51:14;;;;;;;;;;;24.00;44.70;;;;;;1597260;72;689;-72
2021/03/14 01:53:16;;;;;;;;;;;24.00;44.60;;;;;;1595036;72;1947;-70
2021/03/14 01:55:18;;;;;;;;;;;24.00;44.50;;;;;;1598078;72;750;-73
2021/03/14 01:57:20;;;;;;;;;;;24.00;44.40;;;;;;1598954;72;741;-69
2021/03/14 01:59:22;;;;;;;;;;;24.00;44.30;;;;;;1597986;72;788;-71
2021/03/14 02:01:24;;;;;;;;;;;24.00;44.20;;;;;;1603200;72;720;-72
2021/03/14 02:03:26;;;;;;;;;;;24.00;44.00;;;;;;1603801;72;1167;-70
2021/03/14 02:05:28;;;;;;;;;;;24.00;43.90;;;;;;1605018;72;735;-71
2021/03/14 02:07:30;;;;;;;;;;;24.10;44.00;;;;;;1603942;72;725;-69
2021/03/14 02:09:32;;;;;;;;;;;24.00;43.90;;;;;;1599032;72;716;-68
2021/03/14 02:11:34;;;;;;;;;;;24.10;44.10;;;;;;1598905;72;1932;-69
2021/03/14 02:13:47;;;;;;;;;;;24.00;43.70;;;;;;1597462;72;1122;-69
2021/03/14 02:15:59;;;;;;;;;;;24.00;43.90;;;;;;1603268;72;719;-71
2021/03/14 02:18:01;;;;;;;;;;;24.00;43.80;;;;;;1596587;72;798;-71
2021/03/14 02:20:12;;;;;;;;;;;24.00;43.90;;;;;;1600088;72;752;-69
2021/03/14 02:22:14;;;;;;;;;;;24.00;43.90;;;;;;1600804;72;734;-69
2021/03/14 02:24:19;;;;;;;;;;;24.00;43.90;;;;;;1601630;72;1122;-69
2021/03/14 02:26:23;;;;;;;;;;;24.00;43.90;;;;;;1609210;72;818;-71
2021/03/14 02:28:25;;;;;;;;;;;24.00;43.80;;;;;;1609332;72;721;-70
2021/03/14 02:30:26;;;;;;;;;;;24.00;43.60;;;;;;1609711;72;700;-69
2021/03/14 02:32:28;;;;;;;;;;;24.00;43.60;;;;;;1607040;72;1938;-70
2021/03/14 02:34:32;;;;;;;;;;;24.00;43.60;;;;;;1610777;72;705;-71
2021/03/14 02:36:34;;;;;;;;;;;24.00;43.50;;;;;;1614090;72;1020;-72
2021/03/14 02:38:36;;;;;;;;;;;24.00;43.70;;;;;;1609237;73;748;-74
2021/03/14 02:40:39;;;;;;;;;;;24.00;43.90;;;;;;1608258;72;811;-73
2021/03/14 02:42:41;;;;;;;;;;;24.00;43.80;;;;;;1612090;72;1151;-73
2021/03/14 02:44:44;;;;;;;;;;;24.00;43.70;;;;;;1611490;72;696;-70
2021/03/14 02:46:46;;;;;;;;;;;24.00;43.70;;;;;;1617677;72;804;-70
2021/03/14 02:48:48;;;;;;;;;;;24.00;43.70;;;;;;1607554;72;728;-71
2021/03/14 02:50:50;;;;;;;;;;;24.00;43.70;;;;;;1611278;72;721;-71
2021/03/14 02:52:52;;;;;;;;;;;24.00;43.60;;;;;;1607177;72;1930;-71
2021/03/14 02:54:54;;;;;;;;;;;24.00;43.60;;;;;;1608193;72;800;-70
2021/03/14 02:56:56;;;;;;;;;;;24.00;43.60;;;;;;1608826;72;712;-69
2021/03/14 02:58:58;;;;;;;;;;;24.10;43.70;;;;;;1609602;72;768;-70
2021/03/14 03:00:59;;;;;;;;;;;24.00;43.60;;;;;;1603132;72;712;-72
2021/03/14 03:03:02;;;;;;;;;;;24.00;43.60;;;;;;1605101;72;1151;-71
2021/03/14 03:05:05;;;;;;;;;;;24.00;43.60;;;;;;1607969;72;761;-71
2021/03/14 03:07:07;;;;;;;;;;;24.00;43.50;;;;;;1612770;72;698;-69
2021/03/14 03:09:09;;;;;;;;;;;24.00;43.70;;;;;;1610815;72;733;-69
2021/03/14 03:11:13;;;;;;;;;;;23.90;43.90;;;;;;1608751;72;707;-68
2021/03/14 03:13:15;;;;;;;;;;;23.90;43.70;;;;;;1604455;72;1918;-70
2021/03/14 03:15:17;;;;;;;;;;;23.90;43.80;;;;;;1599723;72;648;-69
2021/03/14 03:17:19;;;;;;;;;;;23.90;43.70;;;;;;1600818;72;732;-69
2021/03/14 03:19:21;;;;;;;;;;;24.00;43.70;;;;;;1608073;72;820;-70
2021/03/14 03:21:23;;;;;;;;;;;24.00;43.50;;;;;;1605323;72;668;-69
2021/03/14 03:23:25;;;;;;;;;;;24.10;43.60;;;;;;1610823;71;2807;-66
2021/03/14 03:25:27;;;;;;;;;;;24.00;43.50;;;;;;1619368;72;666;-64
2021/03/14 03:27:29;;;;;;;;;;;24.00;43.50;;;;;;1627182;72;804;-66
2021/03/14 03:29:31;;;;;;;;;;;24.00;43.40;;;;;;1627753;72;777;-65
2021/03/14 03:31:33;;;;;;;;;;;24.00;43.40;;;;;;1600560;73;739;-65
2021/03/14 03:33:35;;;;;;;;;;;23.90;43.30;;;;;;1632712;72;1931;-65
2021/03/14 03:35:36;;;;;;;;;;;23.90;43.50;;;;;;1660186;71;799;-65
2021/03/14 03:37:38;;;;;;;;;;;23.90;43.50;;;;;;1628694;72;715;-65
2021/03/14 03:39:40;;;;;;;;;;;23.80;43.60;;;;;;1631451;71;728;-67
2021/03/14 03:41:47;;;;;;;;;;;23.70;43.90;;;;;;1622557;72;682;-67
2021/03/14 03:43:49;;;;;;;;;;;23.70;43.90;;;;;;1657897;70;1138;-67
2021/03/14 03:45:51;;;;;;;;;;;23.70;44.10;;;;;;1648402;71;699;-66
2021/03/14 03:47:53;;;;;;;;;;;23.60;43.90;;;;;;1658625;71;673;-65
2021/03/14 03:49:55;;;;;;;;;;;23.60;44.00;;;;;;1653794;71;717;-66
2021/03/14 03:51:57;;;;;;;;;;;23.60;44.20;;;;;;1657641;71;740;-67
2021/03/14 03:53:59;;;;;;;;;;;23.50;44.20;;;;;;1658999;71;1943;-69
2021/03/14 03:56:01;;;;;;;;;;;23.50;44.20;;;;;;1643949;71;910;-70
2021/03/14 03:58:03;;;;;;;;;;;23.50;44.20;;;;;;1630575;72;716;-67
2021/03/14 04:00:07;;;;;;;;;;;23.50;44.20;;;;;;1630112;72;820;-68
2021/03/14 04:02:09;;;;;;;;;;;23.50;44.20;;;;;;1612154;72;711;-67
2021/03/14 04:04:11;;;;;;;;;;;23.50;44.20;;;;;;1627729;72;1142;-66
2021/03/14 04:06:13;;;;;;;;;;;23.50;44.20;;;;;;1656781;71;793;-66
2021/03/14 04:08:15;;;;;;;;;;;23.50;44.10;;;;;;1651278;71;861;-70
2021/03/14 04:10:17;;;;;;;;;;;23.50;44.10;;;;;;1655867;71;706;-66
2021/03/14 04:12:19;;;;;;;;;;;23.50;44.10;;;;;;1649975;71;1925;-66
2021/03/14 04:14:21;;;;;;;;;;;23.50;44.00;;;;;;1659708;71;1189;-72
2021/03/14 04:16:23;;;;;;;;;;;23.50;43.90;;;;;;1647273;71;790;-66
2021/03/14 04:18:25;;;;;;;;;;;23.50;43.90;;;;;;1658373;71;765;-66
2021/03/14 04:20:27;;;;;;;;;;;23.50;43.80;;;;;;1656553;71;720;-67
2021/03/14 04:22:29;;;;;;;;;;;23.50;43.90;;;;;;1653307;71;713;-66
2021/03/14 04:24:31;;;;;;;;;;;23.50;43.90;;;;;;1651125;71;1126;-66
2021/03/14 04:26:33;;;;;;;;;;;23.60;43.80;;;;;;1658640;71;908;-66
2021/03/14 04:28:35;;;;;;;;;;;23.50;43.80;;;;;;1658126;71;707;-67
2021/03/14 04:30:37;;;;;;;;;;;23.60;43.70;;;;;;1658987;71;733;-66
2021/03/14 04:32:39;;;;;;;;;;;23.60;43.60;;;;;;1655477;71;1935;-66
2021/03/14 04:34:40;;;;;;;;;;;23.50;43.60;;;;;;1656373;71;1124;-65
2021/03/14 04:36:42;;;;;;;;;;;23.60;43.60;;;;;;1661211;71;779;-65
2021/03/14 04:38:44;;;;;;;;;;;23.60;43.60;;;;;;1609367;72;801;-66
2021/03/14 04:40:46;;;;;;;;;;;23.50;43.50;;;;;;1620533;72;825;-64
2021/03/14 04:42:49;;;;;;;;;;;23.60;43.50;;;;;;1653241;71;762;-65
2021/03/14 04:44:51;;;;;;;;;;;23.60;43.50;;;;;;1651527;70;1137;-64
2021/03/14 04:46:53;;;;;;;;;;;23.60;43.50;;;;;;1658885;71;811;-64
2021/03/14 04:48:55;;;;;;;;;;;23.60;43.40;;;;;;1658820;71;786;-64
2021/03/14 04:50:57;;;;;;;;;;;23.60;43.50;;;;;;1653174;71;816;-64
2021/03/14 04:53:01;;;;;;;;;;;23.60;43.50;;;;;;1647783;71;1931;-64
2021/03/14 04:55:03;;;;;;;;;;;23.60;43.40;;;;;;1623011;72;1686;-66
2021/03/14 04:57:05;;;;;;;;;;;23.60;43.30;;;;;;1619705;72;729;-67
2021/03/14 04:59:10;;;;;;;;;;;23.60;43.40;;;;;;1627419;72;806;-70
2021/03/14 05:01:12;;;;;;;;;;;23.60;43.90;;;;;;1650376;70;725;-65
2021/03/14 05:03:14;;;;;;;;;;;23.60;43.30;;;;;;1651529;70;1133;-66
2021/03/14 05:05:17;;;;;;;;;;;23.60;43.40;;;;;;1654390;71;884;-65
2021/03/14 05:07:19;;;;;;;;;;;23.60;43.40;;;;;;1657052;72;726;-65
2021/03/14 05:09:21;;;;;;;;;;;23.60;43.40;;;;;;1652468;71;758;-66
2021/03/14 05:11:22;;;;;;;;;;;23.60;43.50;;;;;;1656029;71;799;-65
2021/03/14 05:13:24;;;;;;;;;;;23.60;43.60;;;;;;1651769;71;1940;-66
2021/03/14 05:15:26;;;;;;;;;;;23.60;43.50;;;;;;1636043;72;795;-65
2021/03/14 05:17:28;;;;;;;;;;;23.60;43.80;;;;;;1626503;72;705;-66
2021/03/14 05:19:33;;;;;;;;;;;23.60;43.90;;;;;;1659301;71;806;-67
2021/03/14 05:21:35;;;;;;;;;;;23.60;43.90;;;;;;1652375;70;767;-67
2021/03/14 05:23:37;;;;;;;;;;;23.60;43.80;;;;;;1658851;71;1146;-67
2021/03/14 05:25:39;;;;;;;;;;;23.60;43.80;;;;;;1658913;71;859;-65
2021/03/14 05:27:42;;;;;;;;;;;23.60;43.80;;;;;;1642228;72;680;-67
2021/03/14 05:29:48;;;;;;;;;;;23.60;43.70;;;;;;1657581;71;972;-66
2021/03/14 05:31:47;;;;;;;;;;;23.70;43.80;;;;;;1643492;71;1251;-64
2021/03/14 05:33:49;;;;;;;;;;;23.60;43.80;;;;;;1626470;72;1928;-67
2021/03/14 05:35:51;;;;;;;;;;;23.60;43.80;;;;;;1618067;72;831;-67
2021/03/14 05:37:54;;;;;;;;;;;23.70;43.90;;;;;;1650628;70;794;-67
2021/03/14 05:39:56;;;;;;;;;;;23.60;43.60;;;;;;1656096;70;802;-65
2021/03/14 05:41:58;;;;;;;;;;;23.60;43.60;;;;;;1627725;72;786;-65
2021/03/14 05:44:01;;;;;;;;;;;23.70;43.80;;;;;;1623770;72;1179;-65
2021/03/14 05:46:02;;;;;;;;;;;23.70;43.70;;;;;;1629132;72;864;-65
2021/03/14 05:48:05;;;;;;;;;;;23.60;43.40;;;;;;1653746;71;716;-65
2021/03/14 05:50:08;;;;;;;;;;;23.60;43.50;;;;;;1656283;72;708;-65
2021/03/14 05:52:10;;;;;;;;;;;23.60;43.50;;;;;;1621773;72;774;-67
2021/03/14 05:54:13;;;;;;;;;;;23.70;44.00;;;;;;1625943;72;1937;-67
2021/03/14 05:56:15;;;;;;;;;;;23.70;43.90;;;;;;1581722;73;876;-66
2021/03/14 05:58:17;;;;;;;;;;;23.60;43.90;;;;;;1612532;72;744;-68
2021/03/14 06:00:31;;;;;;;;;;;23.70;44.00;;;;;;1628857;71;749;-68
2021/03/14 06:02:33;;;;;;;;;;;23.70;44.00;;;;;;1633391;71;680;-66
2021/03/14 06:04:35;;;;;;;;;;;23.70;44.00;;;;;;1627672;72;1126;-68
2021/03/14 06:06:37;;;;;;;;;;;23.70;44.00;;;;;;1620261;72;782;-66
2021/03/14 06:08:39;;;;;;;;;;;23.70;44.00;;;;;;1632956;71;766;-67
2021/03/14 06:10:41;;;;;;;;;;;23.70;44.00;;;;;;1636648;72;742;-66
2021/03/14 06:12:43;;;;;;;;;;;23.70;43.90;;;;;;1651848;71;780;-64
2021/03/14 06:14:45;;;;;;;;;;;23.70;43.80;;;;;;1621495;72;1946;-65
2021/03/14 06:16:47;;;;;;;;;;;23.80;44.00;;;;;;1625569;73;744;-66
2021/03/14 06:18:52;;;;;;;;;;;23.70;43.90;;;;;;1625442;71;721;-65
2021/03/14 06:20:54;;;;;;;;;;;23.70;43.90;;;;;;1631919;72;780;-66
2021/03/14 06:22:57;;;;;;;;;;;23.70;43.80;;;;;;1623085;72;1138;-66
2021/03/14 06:24:59;;;;;;;;;;;23.80;43.80;;;;;;1647239;71;1901;-65
2021/03/14 06:27:01;;;;;;;;;;;23.70;43.70;;;;;;1653850;71;730;-65
2021/03/14 06:29:20;;;;;;;;;;;23.80;43.60;;;;;;1619016;72;725;-65
2021/03/14 06:31:22;;;;;;;;;;;23.70;43.60;;;;;;1617263;72;774;-65
2021/03/14 06:33:24;;;;;;;;;;;23.80;43.60;;;;;;1624777;72;1951;-62
2021/03/14 06:35:26;;;;;;;;;;;23.80;43.60;;;;;;1603375;73;1352;-63
2021/03/14 06:37:28;;;;;;;;;;;23.80;43.60;;;;;;1631064;72;799;-66
2021/03/14 06:39:30;;;;;;;;;;;23.80;43.50;;;;;;1638354;72;748;-65
2021/03/14 06:41:31;;;;;;;;;;;23.80;43.50;;;;;;1655055;71;724;-65
2021/03/14 06:43:34;;;;;;;;;;;23.80;43.50;;;;;;1654961;70;1187;-65
2021/03/14 06:45:41;;;;;;;;;;;23.70;43.50;;;;;;1657157;70;707;-64
2021/03/14 06:47:44;;;;;;;;;;;23.80;43.50;;;;;;1618212;73;1900;-64
2021/03/14 06:49:46;;;;;;;;;;;23.80;43.40;;;;;;1630974;72;726;-64
2021/03/14 06:51:49;;;;;;;;;;;23.70;43.50;;;;;;1628241;72;764;-65
2021/03/14 06:53:51;;;;;;;;;;;23.80;43.50;;;;;;1615819;72;1945;-65
2021/03/14 06:55:54;;;;;;;;;;;23.80;43.50;;;;;;1621793;72;789;-64
2021/03/14 06:57:55;;;;;;;;;;;23.80;43.60;;;;;;1647981;71;660;-65
2021/03/14 07:00:02;;;;;;;;;;;23.70;43.50;;;;;;1653948;72;821;-65
2021/03/14 07:02:02;;;;;;;;;;;23.80;43.40;;;;;;1623606;72;1261;-65
2021/03/14 07:04:03;;;;;;;;;;;23.80;43.40;;;;;;1655930;71;1172;-64
2021/03/14 07:06:10;;;;;;;;;;;23.70;43.50;;;;;;1620197;72;734;-64
2021/03/14 07:08:13;;;;;;;;;;;23.90;43.90;;;;;;1624742;72;1543;-65
2021/03/14 07:10:16;;;;;;;;;;;23.80;43.80;;;;;;1620933;72;1904;-65
2021/03/14 07:12:20;;;;;;;;;;;23.80;43.80;;;;;;1626770;72;942;-65
2021/03/14 07:14:24;;;;;;;;;;;23.80;43.90;;;;;;1629800;70;1936;-71
2021/03/14 07:16:45;;;;;;;;;;;23.90;44.20;;;;;;1655664;71;724;-70
2021/03/14 07:18:48;;;;;;;;;;;23.90;43.80;;;;;;1654168;72;766;-70
2021/03/14 07:20:50;;;;;;;;;;;23.90;43.40;;;;;;1655666;71;1180;-71
2021/03/14 07:22:59;;;;;;;;;;;23.90;43.20;;;;;;1657135;71;751;-73
2021/03/14 07:25:01;;;;;;;;;;;23.90;42.80;;;;;;1655139;72;759;-70
2021/03/14 07:27:04;;;;;;;;;;;23.90;42.50;;;;;;1650789;71;730;-69
2021/03/14 07:29:06;;;;;;;;;;;23.90;42.40;;;;;;1657143;71;784;-72
2021/03/14 07:31:08;;;;;;;;;;;23.90;42.30;;;;;;1657246;71;772;-71
2021/03/14 07:33:10;;;;;;;;;;;23.90;42.30;;;;;;1657084;71;1165;-70
2021/03/14 07:35:12;;;;;;;;;;;23.90;42.20;;;;;;1653125;71;1930;-70
2021/03/14 07:37:14;;;;;;;;;;;23.90;42.10;;;;;;1657514;71;747;-71
2021/03/14 07:39:17;;;;;;;;;;;23.90;42.10;;;;;;1621823;72;815;-69
2021/03/14 07:41:18;;;;;;;;;;;23.90;42.10;;;;;;1622548;71;766;-72
2021/03/14 07:43:20;;;;;;;;;;;23.90;42.10;;;;;;1630385;71;1134;-69
2021/03/14 07:45:22;;;;;;;;;;;23.90;42.00;;;;;;1629016;71;887;-71
2021/03/14 07:47:24;;;;;;;;;;;23.90;41.90;;;;;;1622900;72;804;-70
2021/03/14 07:49:26;;;;;;;;;;;23.90;41.90;;;;;;1656441;71;747;-69
2021/03/14 07:51:29;;;;;;;;;;;23.90;41.80;;;;;;1655480;71;762;-69
2021/03/14 07:53:30;;;;;;;;;;;23.90;41.60;;;;;;1658447;71;1169;-69
2021/03/14 07:55:32;;;;;;;;;;;24.00;41.60;;;;;;1657062;71;789;-70
2021/03/14 07:57:34;;;;;;;;;;;23.90;41.50;;;;;;1657018;71;701;-70
2021/03/14 07:59:36;;;;;;;;;;;24.00;41.50;;;;;;1650469;71;784;-71
2021/03/14 08:01:40;;;;;;;;;;;24.00;41.60;;;;;;1657408;71;795;-70
2021/03/14 08:03:41;;;;;;;;;;;24.00;41.50;;;;;;1656622;71;1691;-70
2021/03/14 08:05:45;;;;;;;;;;;24.00;41.50;;;;;;1621661;72;891;-70
2021/03/14 08:07:47;;;;;;;;;;;24.10;41.50;;;;;;1633293;72;807;-71
2021/03/14 08:09:50;;;;;;;;;;;24.10;41.50;;;;;;1627286;71;706;-70
2021/03/14 08:11:54;;;;;;;;;;;24.10;41.40;;;;;;1658629;71;789;-70
2021/03/14 08:13:56;;;;;;;;;;;24.10;41.30;;;;;;1652818;71;2006;-69
2021/03/14 08:16:07;;;;;;;;;;;24.20;41.30;;;;;;1657826;70;800;-69
2021/03/14 08:18:11;;;;;;;;;;;24.10;41.20;;;;;;1656773;71;766;-67
2021/03/14 08:20:12;;;;;;;;;;;24.20;41.00;;;;;;1651538;71;1684;-68
2021/03/14 08:22:33;;;;;;;;;;;24.20;41.10;;;;;;1658601;71;799;-64
2021/03/14 08:24:34;;;;;;;;;;;24.20;41.30;;;;;;1623058;72;1145;-69
2021/03/14 08:26:37;;;;;;;;;;;24.30;41.40;;;;;;1628865;71;787;-70
2021/03/14 08:28:39;;;;;;;;;;;24.20;41.30;;;;;;1657077;71;851;-70
2021/03/14 08:30:44;;;;;;;;;;;24.30;41.40;;;;;;1658409;71;790;-70
2021/03/14 08:32:45;;;;;;;;;;;24.30;41.30;;;;;;1658087;71;698;-71
2021/03/14 08:34:47;;;;;;;;;;;24.30;41.20;;;;;;1659982;71;1955;-69
2021/03/14 08:36:49;;;;;;;;;;;24.30;41.10;;;;;;1660147;71;790;-69
2021/03/14 08:38:57;;;;;;;;;;;24.40;41.00;;;;;;1659517;71;734;-68
2021/03/14 08:41:13;;;;;;;;;;;24.30;40.90;;;;;;1657456;71;1468;-69
2021/03/14 08:43:17;;;;;;;;;;;24.30;40.90;;;;;;1626234;72;1162;-69
2021/03/14 08:45:22;;;;;;;;;;;24.40;40.80;;;;;;1618261;72;1231;-69
2021/03/14 08:47:25;;;;;;;;;;;24.40;40.40;;;;;;1623925;72;734;-68
2021/03/14 08:49:27;;;;;;;;;;;24.40;40.60;;;;;;1628652;71;754;-71
2021/03/14 08:51:29;;;;;;;;;;;24.40;40.70;;;;;;1655186;71;776;-71
2021/03/14 08:53:31;;;;;;;;;;;24.40;40.70;;;;;;1658916;71;1206;-71
2021/03/14 08:55:32;;;;;;;;;;;24.50;40.70;;;;;;1619935;72;1935;-70
2021/03/14 08:57:34;;;;;;;;;;;24.50;40.60;;;;;;1654854;71;798;-70
2021/03/14 08:59:36;;;;;;;;;;;24.50;40.40;;;;;;1652108;71;799;-70
2021/03/14 09:01:38;;;;;;;;;;;24.60;40.30;;;;;;1647403;71;760;-69
2021/03/14 09:03:42;;;;;;;;;;;24.70;40.20;;;;;;1657075;71;1085;-70
2021/03/14 09:06:02;;;;;;;;;;;24.60;40.00;;;;;;1650322;70;1609;-71
2021/03/14 09:08:04;;;;;;;;;;;24.60;40.00;;;;;;1627865;72;750;-70
2021/03/14 09:10:10;;;;;;;;;;;24.60;40.10;;;;;;1655695;71;779;-69
2021/03/14 09:12:16;;;;;;;;;;;24.60;40.20;;;;;;1635716;72;1053;-71
2021/03/14 09:14:25;;;;;;;;;;;24.60;40.20;;;;;;1618933;73;1928;-70
2021/03/14 09:16:42;;;;;;;;;;;24.60;40.20;;;;;;1642990;71;1030;-69
2021/03/14 09:18:48;;;;;;;;;;;24.50;40.20;;;;;;1644699;71;790;-71
2021/03/14 09:20:59;;;;;;;;;;;24.50;40.30;;;;;;1638823;71;780;-71
2021/03/14 09:23:07;;;;;;;;;;;24.40;40.20;;;;;;1614757;72;1139;-71
2021/03/14 09:25:09;;;;;;;;;;;24.40;40.30;;;;;;1564277;71;218264;-69
2021/03/14 09:27:12;;;;;;;;;;;24.40;40.30;;;;;;1520201;77;778;-71
2021/03/14 09:29:14;;;;;;;;;;;24.40;40.30;;;;;;1494179;79;1204;-70
2021/03/14 09:31:16;;;;;;;;;;;24.40;40.30;;;;;;1549331;76;735;-69
2021/03/14 09:33:18;;;;;;;;;;;24.40;40.30;;;;;;1539980;76;778;-70
2021/03/14 09:35:32;;;;;;;;;;;24.30;40.40;;;;;;1540125;76;1940;-69
2021/03/14 09:37:34;;;;;;;;;;;24.40;40.40;;;;;;1545841;76;769;-69
2021/03/14 09:39:36;;;;;;;;;;;24.50;40.40;;;;;;1539164;73;216399;-60
2021/03/14 09:41:44;;;;;;;;;;;24.50;40.20;;;;;;1542948;75;1210;-60
2021/03/14 09:43:46;;;;;;;;;;;24.50;40.20;;;;;;1547250;76;739;-59
2021/03/14 09:45:51;;;;;;;;;;;24.40;40.10;;;;;;1546927;75;802;-59
2021/03/14 09:47:57;;;;;;;;;;;24.40;40.20;;;;;;1547289;75;817;-60
2021/03/14 09:50:03;;;;;;;;;;;24.40;40.20;;;;;;1555530;76;767;-60
2021/03/14 09:52:06;;;;;;;;;;;24.30;40.30;;;;;;1542464;76;1230;-60
2021/03/14 09:54:11;;;;;;;;;;;24.40;40.40;;;;;;1545188;76;707;-60
2021/03/14 09:56:13;;;;;;;;;;;24.30;40.40;;;;;;1547785;76;842;-59
2021/03/14 09:58:16;;;;;;;;;;;24.30;40.40;;;;;;1544594;76;761;-61
2021/03/14 10:00:22;;;;;;;;;;;24.40;40.40;;;;;;1554839;75;847;-60
2021/03/14 10:02:24;;;;;;;;;;;24.30;40.30;;;;;;1539140;75;1127;-60
2021/03/14 10:04:26;;;;;;;;;;;24.30;40.20;;;;;;1546050;76;740;-59
2021/03/14 10:06:28;;;;;;;;;;;24.20;40.20;;;;;;1545666;75;754;-60
2021/03/14 10:08:30;;;;;;;;;;;24.30;40.30;;;;;;1508389;76;1233;-60
2021/03/14 10:10:32;;;;;;;;;;;24.40;40.30;;;;;;1540461;75;773;-59
2021/03/14 10:12:34;;;;;;;;;;;24.30;40.10;;;;;;1515590;76;1350;-60
2021/03/14 10:14:36;;;;;;;;;;;24.40;40.00;;;;;;1527261;76;1949;-60
2021/03/14 10:16:40;;;;;;;;;;;24.50;40.00;;;;;;1543803;75;640;-59
2021/03/14 10:18:43;;;;;;;;;;;24.50;40.00;;;;;;1533783;76;763;-60
2021/03/14 10:20:45;;;;;;;;;;;24.50;39.90;;;;;;1536213;75;691;-60
2021/03/14 10:22:47;;;;;;;;;;;24.50;39.90;;;;;;1533889;75;1153;-59
2021/03/14 10:24:49;;;;;;;;;;;24.50;39.70;;;;;;1542854;75;809;-58
2021/03/14 10:27:00;;;;;;;;;;;24.50;39.70;;;;;;1536467;76;808;-59
2021/03/14 10:29:08;;;;;;;;;;;24.50;39.70;;;;;;1541744;76;794;-60
2021/03/14 10:31:06;;;;;;;;;;;24.50;39.70;;;;;;1534652;76;1779;-60
2021/03/14 10:33:19;;;;;;;;;;;24.60;39.60;;;;;;1537848;76;1083;-60
2021/03/14 10:35:21;;;;;;;;;;;24.60;39.70;;;;;;1544566;76;1987;-61
2021/03/14 10:37:26;;;;;;;;;;;24.60;39.70;;;;;;1550515;75;875;-60
2021/03/14 10:39:29;;;;;;;;;;;24.60;39.60;;;;;;1536829;76;795;-60
2021/03/14 10:41:32;;;;;;;;;;;24.60;39.60;;;;;;1534608;75;1154;-60
2021/03/14 10:43:34;;;;;;;;;;;24.60;39.60;;;;;;1533533;75;1897;-60
2021/03/14 10:45:38;;;;;;;;;;;24.60;40.00;;;;;;1545137;75;810;-59
2021/03/14 10:47:40;;;;;;;;;;;24.60;40.30;;;;;;1546351;76;1593;-60
2021/03/14 10:49:41;;;;;;;;;;;24.60;40.40;;;;;;1537189;76;815;-60
2021/03/14 10:51:44;;;;;;;;;;;24.50;40.40;;;;;;1546778;76;1197;-60
2021/03/14 10:53:48;;;;;;;;;;;24.50;40.50;;;;;;1535830;75;743;-59
2021/03/14 10:55:50;;;;;;;;;;;24.50;40.50;;;;;;1535060;76;1941;-60
2021/03/14 10:57:53;;;;;;;;;;;24.50;40.60;;;;;;1525578;76;1044;-60
2021/03/14 11:00:06;;;;;;;;;;;24.50;40.60;;;;;;1539716;76;1837;-60
2021/03/14 11:02:35;;;;;;;;;;;24.50;40.60;;;;;;1540460;76;1079;-60
2021/03/14 11:04:30;;;;;;;;;;;24.50;40.60;;;;;;1541682;76;1656;-60
2021/03/14 11:06:32;;;;;;;;;;;24.50;40.60;;;;;;1533736;75;844;-59
2021/03/14 11:08:51;;;;;;;;;;;24.50;40.50;;;;;;1548164;75;1077;-60
2021/03/14 11:10:54;;;;;;;;;;;24.50;40.50;;;;;;1501908;78;1194;-60
2021/03/14 11:12:56;;;;;;;;;;;24.50;40.50;;;;;;1519655;76;1159;-60
2021/03/14 11:14:58;;;;;;;;;;;24.50;40.50;;;;;;1538986;75;1944;-60
2021/03/14 11:17:13;;;;;;;;;;;24.40;40.40;;;;;;1534717;76;743;-59
2021/03/14 11:19:15;;;;;;;;;;;24.40;40.20;;;;;;1539581;76;831;-59
2021/03/14 11:21:17;;;;;;;;;;;24.30;40.40;;;;;;1514908;76;1184;-59
2021/03/14 11:23:19;;;;;;;;;;;24.30;40.40;;;;;;1545156;75;695;-59
2021/03/14 11:25:20;;;;;;;;;;;24.30;40.20;;;;;;1558514;75;677;-59
2021/03/14 11:27:22;;;;;;;;;;;24.30;40.20;;;;;;1547528;75;822;-59
2021/03/14 11:29:24;;;;;;;;;;;24.40;40.20;;;;;;1556399;75;765;-60
2021/03/14 11:31:26;;;;;;;;;;;24.30;40.20;;;;;;1555943;75;1121;-60
2021/03/14 11:33:28;;;;;;;;;;;24.30;40.10;;;;;;1555568;75;761;-60
2021/03/14 11:35:30;;;;;;;;;;;24.40;40.10;;;;;;1556974;75;1942;-60
2021/03/14 11:37:32;;;;;;;;;;;24.40;39.90;;;;;;1556490;75;1061;-60
2021/03/14 11:39:34;;;;;;;;;;;24.30;39.80;;;;;;1553230;75;789;-60
2021/03/14 11:41:35;;;;;;;;;;;24.40;39.60;;;;;;1559453;75;1157;-59
2021/03/14 11:43:37;;;;;;;;;;;24.50;39.70;;;;;;1557146;75;722;-59
2021/03/14 11:45:39;;;;;;;;;;;24.50;39.70;;;;;;1555795;75;786;-60
2021/03/14 11:47:41;;;;;;;;;;;24.50;39.10;;;;;;1559513;75;735;-60
2021/03/14 11:49:43;;;;;;;;;;;24.60;36.70;;;;;;1556357;75;757;-60
2021/03/14 11:51:45;;;;;;;;;;;24.60;35.40;;;;;;1551883;75;1197;-60
2021/03/14 11:53:47;;;;;;;;;;;24.40;33.90;;;;;;1555236;75;752;-60
2021/03/14 11:55:49;;;;;;;;;;;24.40;33.70;;;;;;1555247;75;1960;-60
2021/03/14 11:57:51;;;;;;;;;;;24.20;33.40;;;;;;1553459;75;1012;-60
2021/03/14 11:59:56;;;;;;;;;;;24.30;32.80;;;;;;1558758;75;709;-60
2021/03/14 12:01:56;;;;;;;;;;;24.20;32.70;;;;;;1559517;75;1680;-60
2021/03/14 12:03:58;;;;;;;;;;;24.20;32.60;;;;;;1558758;75;799;-60
2021/03/14 12:06:00;;;;;;;;;;;24.10;32.10;;;;;;1559360;75;752;-60
2021/03/14 12:08:02;;;;;;;;;;;24.00;32.00;;;;;;1560679;75;707;-60
2021/03/14 12:10:04;;;;;;;;;;;24.00;31.90;;;;;;1558711;75;714;-60
2021/03/14 12:12:06;;;;;;;;;;;24.00;31.90;;;;;;1557604;75;1078;-60
2021/03/14 12:14:08;;;;;;;;;;;24.00;32.00;;;;;;1556919;75;742;-60